Time;durP1;ratioP1;P1;durP2;ratioP2;P2;SDS_P1;SDS_P2;PMS_P1;PMS_P2;Temp;Humidity;BMP_temperature;BMP_pressure;BME280_temperature;BME280_humidity;BME280_pressure;Samples;Min_cycle;Max_cycle;Signal;HPM_P1;HPM_P2
2022/04/20 00:01:11;;;;;;;3.83;3.13;;;12.60;47.40;;;;;;5114207;28;20075;-69
2022/04/20 00:03:38;;;;;;;5.53;2.75;;;12.60;47.30;;;;;;5114155;28;20032;-69
2022/04/20 00:06:04;;;;;;;4.55;2.90;;;12.50;47.20;;;;;;5114149;28;20017;-69
2022/04/20 00:08:32;;;;;;;5.40;2.72;;;12.30;47.00;;;;;;5114081;28;20024;-69
2022/04/20 00:10:58;;;;;;;5.35;3.30;;;12.20;47.30;;;;;;5113989;28;20045;-69
2022/04/20 00:13:24;;;;;;;4.22;2.90;;;12.20;47.20;;;;;;5113953;28;20032;-69
2022/04/20 00:15:49;;;;;;;4.10;2.92;;;12.30;47.00;;;;;;5113917;28;20066;-69
2022/04/20 00:18:15;;;;;;;4.80;3.10;;;12.40;47.40;;;;;;5113693;28;20106;-69
2022/04/20 00:20:41;;;;;;;3.97;3.08;;;12.50;47.70;;;;;;5114009;28;20048;-69
2022/04/20 00:23:06;;;;;;;4.38;3.22;;;12.50;48.70;;;;;;5113949;28;20084;-69
2022/04/20 00:25:33;;;;;;;4.43;2.90;;;12.40;47.70;;;;;;5113916;28;20078;-69
2022/04/20 00:27:59;;;;;;;5.63;3.13;;;12.40;48.20;;;;;;5113817;28;20044;-70
2022/04/20 00:30:24;;;;;;;5.65;3.20;;;12.30;48.60;;;;;;5113734;28;20035;-69
2022/04/20 00:32:50;;;;;;;5.00;3.50;;;12.30;48.80;;;;;;5113666;28;20024;-69
2022/04/20 00:35:15;;;;;;;5.35;3.10;;;12.30;48.80;;;;;;5113650;28;20036;-69
2022/04/20 00:37:41;;;;;;;6.95;3.30;;;12.30;50.10;;;;;;5113538;28;20043;-69
2022/04/20 00:40:08;;;;;;;8.93;3.60;;;12.30;49.20;;;;;;5095811;28;20035;-70
2022/04/20 00:42:36;;;;;;;6.13;3.55;;;12.30;48.90;;;;;;5113530;28;20016;-69
2022/04/20 00:45:02;;;;;;;3.78;2.92;;;12.40;48.60;;;;;;5113526;28;20020;-69
2022/04/20 00:47:29;;;;;;;5.18;3.28;;;12.30;48.60;;;;;;5113510;28;20119;-70
2022/04/20 00:49:56;;;;;;;4.45;3.28;;;12.30;49.50;;;;;;5113476;28;20467;-69
2022/04/20 00:52:22;;;;;;;5.95;3.10;;;12.20;48.70;;;;;;5113419;28;20031;-69
2022/04/20 00:54:48;;;;;;;5.20;3.05;;;12.20;48.60;;;;;;5113399;28;20024;-69
2022/04/20 00:57:15;;;;;;;5.95;3.35;;;12.10;48.60;;;;;;5113309;28;20035;-69
2022/04/20 00:59:42;;;;;;;6.93;3.47;;;12.10;49.20;;;;;;5113336;28;20082;-70
2022/04/20 01:02:08;;;;;;;5.43;3.80;;;12.10;49.20;;;;;;5113372;28;20573;-70
2022/04/20 01:04:34;;;;;;;6.57;3.40;;;12.10;49.60;;;;;;5113315;28;20028;-71
2022/04/20 01:07:08;;;;;;;8.13;3.92;;;12.10;49.60;;;;;;5113313;28;20066;-69
2022/04/20 01:09:34;;;;;;;4.80;3.08;;;12.10;50.50;;;;;;5095395;28;20490;-69
2022/04/20 01:11:59;;;;;;;5.18;3.47;;;12.10;49.90;;;;;;5113280;28;20024;-69
2022/04/20 01:14:25;;;;;;;7.20;3.95;;;12.10;49.30;;;;;;5113395;28;20039;-69
2022/04/20 01:16:51;;;;;;;6.10;4.10;;;12.10;49.50;;;;;;5112936;28;20039;-69
2022/04/20 01:19:16;;;;;;;4.85;3.50;;;12.10;49.50;;;;;;5095485;28;20032;-69
2022/04/20 01:21:42;;;;;;;4.93;3.20;;;12.00;49.30;;;;;;5113166;28;20036;-69
2022/04/20 01:24:08;;;;;;;4.95;3.13;;;12.00;49.20;;;;;;5113156;28;20047;-69
2022/04/20 01:26:35;;;;;;;6.32;3.90;;;12.00;49.10;;;;;;5113101;28;20044;-69
2022/04/20 01:29:02;;;;;;;6.20;3.47;;;11.90;49.10;;;;;;5113021;28;20021;-69
2022/04/20 01:31:29;;;;;;;6.25;3.40;;;11.90;49.60;;;;;;5113085;28;20012;-69
2022/04/20 01:33:55;;;;;;;6.25;3.60;;;11.90;50.70;;;;;;5113054;28;20024;-69
2022/04/20 01:36:21;;;;;;;5.68;3.20;;;11.90;49.40;;;;;;5113038;28;20047;-69
2022/04/20 01:38:46;;;;;;;8.60;3.42;;;11.90;49.20;;;;;;5113584;28;20036;-69
2022/04/20 01:41:13;;;;;;;5.30;3.65;;;11.90;49.50;;;;;;5116934;28;20027;-69
2022/04/20 01:43:39;;;;;;;7.53;3.95;;;11.80;49.30;;;;;;5116850;28;20027;-69
2022/04/20 01:46:04;;;;;;;7.65;3.50;;;11.90;49.40;;;;;;5116801;28;20052;-70
2022/04/20 01:48:30;;;;;;;5.38;3.30;;;11.80;48.70;;;;;;5116762;28;20053;-69
2022/04/20 01:53:40;;;;;;;4.53;3.22;;;11.80;49.00;;;;;;5116935;28;20043;-69
2022/04/20 01:56:06;;;;;;;5.28;3.40;;;11.80;49.30;;;;;;5116670;28;20064;-69
2022/04/20 01:58:34;;;;;;;5.65;3.30;;;11.80;49.10;;;;;;5116532;28;20032;-69
2022/04/20 02:01:00;;;;;;;6.57;3.25;;;11.80;48.70;;;;;;5116562;28;20042;-69
2022/04/20 02:03:26;;;;;;;5.15;3.20;;;11.80;48.80;;;;;;5116191;28;20032;-69
2022/04/20 02:05:52;;;;;;;5.80;3.28;;;11.80;48.80;;;;;;5098495;28;20076;-69
2022/04/20 02:08:18;;;;;;;4.82;2.80;;;11.90;48.80;;;;;;5116392;28;20032;-69
2022/04/20 02:10:44;;;;;;;6.65;3.30;;;11.80;49.30;;;;;;5116337;28;20066;-69
2022/04/20 02:13:10;;;;;;;4.63;3.03;;;11.80;48.90;;;;;;5116310;28;20024;-69
2022/04/20 02:15:36;;;;;;;5.30;2.95;;;11.80;48.80;;;;;;5116306;28;20110;-69
2022/04/20 02:18:02;;;;;;;7.97;3.65;;;11.70;48.90;;;;;;5115984;28;20049;-69
2022/04/20 02:20:28;;;;;;;4.38;2.90;;;11.70;48.90;;;;;;5116181;28;20020;-69
2022/04/20 02:22:53;;;;;;;5.13;3.20;;;11.70;48.80;;;;;;5116129;28;20058;-69
2022/04/20 02:25:19;;;;;;;6.10;3.40;;;11.70;48.90;;;;;;5116103;28;20038;-69
2022/04/20 02:27:45;;;;;;;5.10;3.30;;;11.80;48.70;;;;;;5097971;28;20035;-68
2022/04/20 02:30:11;;;;;;;5.93;3.30;;;11.80;48.70;;;;;;5116111;28;20054;-69
2022/04/20 02:32:36;;;;;;;5.07;3.22;;;11.70;48.80;;;;;;5115940;28;20030;-68
2022/04/20 02:35:02;;;;;;;6.28;3.50;;;11.70;48.60;;;;;;5115907;28;20044;-69
2022/04/20 02:37:29;;;;;;;3.92;3.03;;;11.60;48.70;;;;;;5115761;28;20032;-69
2022/04/20 02:39:55;;;;;;;5.38;3.13;;;11.60;48.80;;;;;;5115810;28;20012;-69
2022/04/20 02:42:20;;;;;;;5.35;3.50;;;11.50;49.20;;;;;;5115713;28;20056;-69
2022/04/20 02:44:46;;;;;;;4.47;3.03;;;11.50;49.40;;;;;;5115711;28;20032;-69
2022/04/20 02:47:11;;;;;;;4.40;3.20;;;11.50;49.10;;;;;;5115789;28;20024;-69
2022/04/20 02:49:37;;;;;;;6.20;3.55;;;11.50;48.80;;;;;;5115472;28;20055;-69
2022/04/20 02:52:03;;;;;;;6.22;3.33;;;11.50;49.00;;;;;;5114531;28;20101;-69
2022/04/20 02:54:29;;;;;;;5.30;3.10;;;11.40;49.10;;;;;;5115553;28;20035;-69
2022/04/20 02:56:55;;;;;;;5.97;3.47;;;11.40;49.50;;;;;;5115403;28;20065;-69
2022/04/20 02:59:21;;;;;;;5.47;3.53;;;11.40;49.50;;;;;;5115398;28;20024;-69
2022/04/20 03:01:47;;;;;;;5.32;3.50;;;11.40;49.70;;;;;;5115359;28;20032;-69
2022/04/20 03:04:12;;;;;;;7.03;3.22;;;11.30;49.50;;;;;;5115328;28;20041;-69
2022/04/20 03:06:38;;;;;;;5.22;3.10;;;11.30;49.70;;;;;;5115296;28;20032;-70
2022/04/20 03:09:04;;;;;;;5.45;3.13;;;11.30;50.00;;;;;;5115265;28;20028;-69
2022/04/20 03:11:29;;;;;;;5.22;3.30;;;11.20;49.90;;;;;;5115196;28;20076;-69
2022/04/20 03:13:56;;;;;;;5.25;3.25;;;11.20;49.60;;;;;;5115138;28;20028;-69
2022/04/20 03:16:23;;;;;;;5.15;3.45;;;11.20;50.00;;;;;;5115050;28;20016;-69
2022/04/20 03:18:48;;;;;;;5.03;3.58;;;11.20;49.70;;;;;;5114777;28;20074;-69
2022/04/20 03:21:14;;;;;;;4.82;3.00;;;11.10;49.70;;;;;;5114982;28;20025;-70
2022/04/20 03:23:40;;;;;;;5.22;3.50;;;11.20;49.80;;;;;;5114913;28;20146;-69
2022/04/20 03:26:06;;;;;;;7.28;3.50;;;11.20;49.60;;;;;;5114892;28;20040;-69
2022/04/20 03:28:32;;;;;;;5.32;3.50;;;11.20;49.80;;;;;;5114765;28;20020;-69
2022/04/20 03:30:59;;;;;;;6.28;3.70;;;11.20;49.80;;;;;;5114826;28;20024;-69
2022/04/20 03:33:24;;;;;;;6.07;3.72;;;11.20;51.00;;;;;;5114786;28;20020;-69
2022/04/20 03:35:50;;;;;;;5.03;3.00;;;11.20;49.90;;;;;;5114687;28;20035;-69
2022/04/20 03:38:16;;;;;;;5.05;3.28;;;11.20;49.40;;;;;;5114612;28;20027;-69
2022/04/20 03:40:42;;;;;;;5.13;3.45;;;11.10;49.50;;;;;;5114637;28;20096;-69
2022/04/20 03:43:07;;;;;;;6.03;3.70;;;11.10;49.40;;;;;;5114580;28;20411;-69
2022/04/20 03:45:33;;;;;;;6.90;3.10;;;11.00;49.50;;;;;;5114518;28;20028;-69
2022/04/20 03:47:59;;;;;;;7.45;3.22;;;11.00;49.30;;;;;;5114482;28;20028;-69
2022/04/20 03:50:25;;;;;;;5.55;3.08;;;11.10;49.20;;;;;;5114428;28;20025;-69
2022/04/20 03:52:51;;;;;;;6.43;3.65;;;11.00;49.60;;;;;;5114389;28;20030;-69
2022/04/20 03:55:17;;;;;;;7.70;3.90;;;11.00;49.30;;;;;;5114385;28;20035;-69
2022/04/20 03:57:43;;;;;;;6.43;3.38;;;11.00;49.40;;;;;;5114248;28;20074;-69
2022/04/20 04:00:09;;;;;;;4.40;3.35;;;10.90;49.80;;;;;;5114248;28;20020;-69
2022/04/20 04:02:34;;;;;;;6.18;3.63;;;10.80;49.60;;;;;;5113879;28;20087;-70
2022/04/20 04:05:00;;;;;;;6.45;3.63;;;10.80;49.60;;;;;;5114150;28;20032;-68
2022/04/20 04:07:26;;;;;;;5.32;3.20;;;10.70;49.80;;;;;;5114116;28;20035;-69
2022/04/20 04:09:52;;;;;;;5.68;3.53;;;10.80;50.00;;;;;;5114085;28;20038;-69
2022/04/20 04:12:23;;;;;;;6.05;3.83;;;10.80;50.20;;;;;;5114055;28;20043;-69
2022/04/20 04:14:49;;;;;;;4.90;3.40;;;10.90;50.60;;;;;;5114068;28;20039;-69
2022/04/20 04:17:14;;;;;;;4.55;3.42;;;10.90;50.50;;;;;;5113601;28;20056;-69
2022/04/20 04:19:40;;;;;;;6.20;3.30;;;10.90;50.20;;;;;;5113934;28;20032;-69
2022/04/20 04:22:06;;;;;;;4.45;3.28;;;10.90;50.50;;;;;;5113872;28;20024;-69
2022/04/20 04:24:34;;;;;;;5.50;3.65;;;10.90;50.70;;;;;;5113838;28;20028;-69
2022/04/20 04:27:01;;;;;;;4.70;3.33;;;10.80;50.80;;;;;;5113776;28;20031;-69
2022/04/20 04:29:28;;;;;;;5.82;3.60;;;10.80;50.80;;;;;;5113657;28;20039;-69
2022/04/20 04:31:54;;;;;;;5.60;3.80;;;10.80;50.90;;;;;;5113841;28;20020;-69
2022/04/20 04:34:20;;;;;;;5.13;3.15;;;10.80;51.10;;;;;;5113677;28;20030;-69
2022/04/20 04:36:46;;;;;;;5.43;4.10;;;10.80;51.10;;;;;;5113592;28;20028;-69
2022/04/20 04:39:14;;;;;;;6.13;3.70;;;10.70;51.00;;;;;;5113630;28;20017;-70
2022/04/20 04:41:42;;;;;;;5.95;3.50;;;10.60;51.20;;;;;;5113579;28;20019;-69
2022/04/20 04:44:08;;;;;;;7.22;3.80;;;10.50;51.30;;;;;;5113523;28;20088;-69
2022/04/20 04:49:18;;;;;;;7.50;3.53;;;10.60;51.10;;;;;;5113724;28;20046;-69
2022/04/20 04:51:43;;;;;;;7.25;3.70;;;10.70;51.10;;;;;;5113415;28;20032;-69
2022/04/20 04:54:09;;;;;;;7.90;4.18;;;10.70;51.00;;;;;;5113475;28;20031;-70
2022/04/20 04:56:35;;;;;;;8.02;3.92;;;10.70;51.50;;;;;;5113434;28;20031;-69
2022/04/20 04:59:01;;;;;;;7.65;4.45;;;10.60;51.70;;;;;;5113335;28;20086;-69
2022/04/20 05:01:26;;;;;;;10.75;5.18;;;10.60;52.10;;;;;;5113330;28;20028;-69
2022/04/20 05:03:55;;;;;;;8.57;5.15;;;10.50;52.10;;;;;;5113164;28;20035;-69
2022/04/20 05:06:20;;;;;;;9.52;4.82;;;10.50;52.20;;;;;;5095894;28;20028;-70
2022/04/20 05:08:46;;;;;;;8.50;4.95;;;10.50;52.40;;;;;;5113292;28;20099;-70
2022/04/20 05:11:12;;;;;;;7.85;4.90;;;10.40;52.40;;;;;;5113272;28;20024;-70
2022/04/20 05:13:38;;;;;;;7.35;4.68;;;10.50;52.70;;;;;;5113771;28;20088;-70
2022/04/20 05:16:04;;;;;;;9.77;5.57;;;10.40;52.50;;;;;;5117417;28;20032;-70
2022/04/20 05:18:30;;;;;;;8.50;5.30;;;10.30;53.10;;;;;;5117052;28;20048;-70
2022/04/20 05:20:55;;;;;;;9.10;4.75;;;10.20;53.30;;;;;;5117291;28;20028;-70
2022/04/20 05:23:21;;;;;;;7.75;4.40;;;10.20;53.60;;;;;;5099203;28;20040;-70
2022/04/20 05:25:48;;;;;;;8.98;4.90;;;10.20;53.80;;;;;;5117251;28;20028;-70
2022/04/20 05:28:14;;;;;;;9.88;4.85;;;10.10;54.00;;;;;;5117102;28;20020;-70
2022/04/20 05:30:40;;;;;;;9.52;4.40;;;10.20;54.20;;;;;;5117098;28;20020;-70
2022/04/20 05:33:06;;;;;;;7.60;4.25;;;10.20;54.10;;;;;;5099119;28;20028;-70
2022/04/20 05:35:32;;;;;;;7.60;3.97;;;10.30;54.20;;;;;;5117072;28;20024;-70
2022/04/20 05:43:26;;;;;;;8.20;4.10;;;10.40;54.00;;;;;;5117046;28;20039;-69
2022/04/20 05:45:53;;;;;;;6.22;3.90;;;10.40;54.10;;;;;;5116763;28;20028;-69
2022/04/20 05:48:18;;;;;;;5.57;3.95;;;10.40;54.40;;;;;;5116825;28;20024;-70
2022/04/20 05:50:44;;;;;;;8.45;4.00;;;10.50;54.40;;;;;;5116819;28;20105;-70
2022/04/20 05:53:10;;;;;;;6.13;3.70;;;10.50;54.30;;;;;;5116733;28;20058;-69
2022/04/20 05:55:36;;;;;;;6.45;3.78;;;10.50;54.10;;;;;;5116663;28;20028;-69
2022/04/20 05:58:02;;;;;;;7.13;3.80;;;10.40;54.20;;;;;;5116561;28;20032;-69
2022/04/20 06:00:27;;;;;;;6.50;3.78;;;10.50;54.40;;;;;;5116537;28;20143;-70
2022/04/20 06:02:54;;;;;;;8.05;3.75;;;10.50;54.40;;;;;;5116516;28;20044;-69
2022/04/20 06:05:21;;;;;;;6.25;3.83;;;10.50;54.80;;;;;;5116452;28;20020;-69
2022/04/20 06:07:47;;;;;;;6.03;3.67;;;10.50;54.70;;;;;;5116412;28;20024;-68
2022/04/20 06:10:13;;;;;;;6.85;3.85;;;10.60;56.10;;;;;;5116312;28;20048;-68
2022/04/20 06:12:39;;;;;;;7.10;3.53;;;10.60;55.20;;;;;;5116348;28;20057;-69
2022/04/20 06:15:08;;;;;;;5.97;4.00;;;10.60;55.00;;;;;;5116293;28;20035;-68
2022/04/20 06:17:34;;;;;;;5.78;3.60;;;10.70;55.00;;;;;;5115846;28;20056;-68
2022/04/20 06:20:00;;;;;;;7.10;3.60;;;10.70;54.50;;;;;;5116351;28;20020;-68
2022/04/20 06:22:26;;;;;;;5.43;3.30;;;10.80;54.50;;;;;;5116198;28;20080;-69
2022/04/20 06:24:51;;;;;;;6.13;3.90;;;10.80;54.50;;;;;;5115587;28;20027;-68
2022/04/20 06:27:17;;;;;;;7.65;3.90;;;10.90;54.70;;;;;;5116072;28;20031;-69
2022/04/20 06:29:43;;;;;;;10.30;3.85;;;11.00;54.10;;;;;;5098013;28;20455;-69
2022/04/20 06:32:08;;;;;;;5.93;3.72;;;11.00;53.50;;;;;;5115834;28;20050;-69
2022/04/20 06:34:34;;;;;;;8.25;3.35;;;11.00;53.30;;;;;;5115820;28;20024;-70
2022/04/20 06:37:00;;;;;;;5.85;3.60;;;11.10;53.60;;;;;;5115858;28;20035;-69
2022/04/20 06:39:27;;;;;;;7.28;3.40;;;11.10;53.70;;;;;;5115961;28;20024;-69
2022/04/20 06:41:52;;;;;;;6.82;3.65;;;11.10;53.80;;;;;;5115819;28;20053;-70
2022/04/20 06:44:18;;;;;;;6.28;4.10;;;11.20;53.70;;;;;;5115765;28;20040;-70
2022/04/20 06:46:45;;;;;;;5.97;3.60;;;11.20;53.70;;;;;;5115715;28;20024;-69
2022/04/20 06:49:11;;;;;;;6.38;3.65;;;11.30;53.90;;;;;;5115644;28;20020;-69
2022/04/20 06:59:51;;;;;;;5.57;3.65;;;11.50;53.90;;;;;;5115582;28;20058;-69
2022/04/20 07:02:17;;;;;;;5.25;3.83;;;11.60;53.70;;;;;;5115357;28;20028;-69
2022/04/20 07:04:43;;;;;;;5.30;3.38;;;11.60;52.80;;;;;;5115361;28;20031;-69
2022/04/20 07:07:08;;;;;;;6.43;3.92;;;11.70;53.10;;;;;;5115253;28;20510;-69
2022/04/20 07:09:34;;;;;;;5.80;3.70;;;11.80;53.00;;;;;;5115358;28;20075;-69
2022/04/20 07:12:00;;;;;;;6.75;3.30;;;11.90;53.00;;;;;;5115216;28;20050;-69
2022/04/20 07:14:35;;;;;;;4.47;2.92;;;11.90;53.20;;;;;;5115131;28;20032;-69
2022/04/20 07:17:02;;;;;;;5.25;3.30;;;12.00;52.00;;;;;;5114405;28;20040;-69
2022/04/20 07:19:28;;;;;;;6.72;3.38;;;12.00;52.30;;;;;;5114910;28;20024;-69
2022/04/20 07:21:53;;;;;;;7.63;3.30;;;12.10;52.30;;;;;;5115031;28;20020;-68
2022/04/20 07:24:19;;;;;;;5.95;3.42;;;12.20;51.90;;;;;;5114976;28;20024;-68
2022/04/20 07:26:45;;;;;;;6.82;3.50;;;12.30;51.70;;;;;;5114898;28;20020;-68
2022/04/20 07:29:10;;;;;;;6.70;3.83;;;12.30;51.90;;;;;;5114767;28;20511;-68
2022/04/20 07:31:36;;;;;;;5.13;3.67;;;12.40;52.10;;;;;;5114739;28;20043;-69
2022/04/20 07:34:02;;;;;;;7.07;3.55;;;12.50;52.20;;;;;;5114111;28;20039;-69
2022/04/20 07:36:27;;;;;;;7.43;3.90;;;12.60;52.00;;;;;;5113736;28;20042;-69
2022/04/20 07:38:53;;;;;;;5.35;3.70;;;12.70;51.90;;;;;;5096510;28;20025;-69
2022/04/20 07:41:19;;;;;;;5.43;3.25;;;12.80;51.50;;;;;;5114608;28;20031;-70
2022/04/20 07:43:44;;;;;;;7.55;4.03;;;12.90;51.40;;;;;;5114585;28;20087;-70
2022/04/20 07:46:12;;;;;;;7.05;3.60;;;13.00;51.60;;;;;;5114561;28;20050;-71
2022/04/20 07:48:38;;;;;;;7.03;3.80;;;13.10;52.70;;;;;;5114448;28;20488;-71
2022/04/20 07:51:03;;;;;;;7.82;3.25;;;13.20;51.20;;;;;;5114429;28;20034;-71
2022/04/20 07:53:29;;;;;;;17.38;8.80;;;13.30;50.70;;;;;;5114494;28;20020;-70
2022/04/20 07:55:55;;;;;;;8.55;4.72;;;13.40;50.20;;;;;;5114329;28;20020;-70
2022/04/20 07:58:21;;;;;;;7.63;3.53;;;13.50;50.50;;;;;;5114276;28;20035;-70
2022/04/20 08:00:49;;;;;;;7.25;3.38;;;13.50;51.50;;;;;;5114228;28;20040;-70
2022/04/20 08:03:16;;;;;;;6.15;3.45;;;13.60;49.80;;;;;;5114222;28;20017;-70
2022/04/20 08:05:43;;;;;;;5.15;3.10;;;13.80;50.30;;;;;;5114183;28;20024;-70
2022/04/20 08:08:10;;;;;;;4.20;3.20;;;13.80;48.70;;;;;;5096133;28;20035;-70
2022/04/20 08:10:37;;;;;;;4.60;3.25;;;13.90;49.00;;;;;;5114263;28;20020;-69
2022/04/20 08:14:09;;;;;;;5.85;3.92;;;14.00;49.30;;;;;;5114026;28;20028;-70
2022/04/20 08:15:48;;;;;;;7.78;3.72;;;14.10;48.20;;;;;;5113804;28;20059;-69
2022/04/20 08:18:14;;;;;;;6.25;3.50;;;14.20;49.30;;;;;;5113681;28;20059;-70
2022/04/20 08:20:40;;;;;;;5.95;3.70;;;14.20;48.00;;;;;;5113897;28;20020;-70
2022/04/20 08:23:06;;;;;;;4.90;3.35;;;14.30;48.70;;;;;;5113838;28;20024;-70
2022/04/20 08:25:31;;;;;;;6.45;3.63;;;14.40;48.30;;;;;;5113777;28;20028;-70
2022/04/20 08:27:57;;;;;;;4.90;3.40;;;14.50;47.00;;;;;;5095707;28;20043;-70
2022/04/20 08:30:22;;;;;;;6.32;3.33;;;14.60;46.50;;;;;;5113764;28;20024;-69
2022/04/20 08:32:48;;;;;;;9.30;3.50;;;14.60;46.90;;;;;;5095752;28;20036;-70
2022/04/20 08:35:14;;;;;;;9.30;3.40;;;14.70;46.50;;;;;;5113771;28;20024;-69
2022/04/20 08:37:39;;;;;;;4.63;3.25;;;14.80;46.80;;;;;;5113554;28;20035;-69
2022/04/20 08:40:05;;;;;;;5.07;3.40;;;14.80;46.10;;;;;;5113597;28;20027;-70
2022/04/20 08:42:34;;;;;;;12.75;5.47;;;14.90;45.20;;;;;;5112890;28;20052;-70
2022/04/20 08:45:02;;;;;;;7.57;3.53;;;14.90;44.20;;;;;;5113495;28;20058;-68
2022/04/20 08:47:36;;;;;;;10.20;3.40;;;14.90;44.60;;;;;;5113474;28;20031;-68
2022/04/20 08:50:03;;;;;;;4.82;2.80;;;15.00;45.20;;;;;;5112765;28;20043;-69
2022/04/20 08:52:38;;;;;;;4.35;2.85;;;15.10;45.00;;;;;;5113437;28;20028;-70
2022/04/20 08:55:05;;;;;;;6.38;2.90;;;15.20;44.80;;;;;;5113593;28;20063;-70
2022/04/20 08:57:33;;;;;;;4.47;3.10;;;15.30;44.80;;;;;;5095454;28;20052;-71
2022/04/20 09:00:00;;;;;;;3.42;2.80;;;15.50;44.20;;;;;;5113386;28;20012;-71
2022/04/20 09:02:28;;;;;;;11.60;3.47;;;15.60;43.60;;;;;;5113367;28;20028;-70
2022/04/20 09:04:58;;;;;;;3.72;2.90;;;15.60;43.10;;;;;;5113312;28;20107;-70
2022/04/20 09:07:25;;;;;;;4.97;2.88;;;15.70;42.90;;;;;;5113454;28;20080;-70
2022/04/20 09:09:57;;;;;;;4.38;3.10;;;15.70;43.30;;;;;;5095578;28;20042;-70
2022/04/20 09:12:23;;;;;;;5.07;2.55;;;15.80;43.20;;;;;;5113233;28;20020;-70
2022/04/20 09:14:51;;;;;;;4.30;3.28;;;15.90;41.90;;;;;;5113206;28;20028;-70
2022/04/20 09:17:21;;;;;;;5.00;2.97;;;15.90;41.40;;;;;;5112937;28;20075;-70
2022/04/20 09:19:51;;;;;;;5.18;2.75;;;15.90;41.40;;;;;;5113192;28;20028;-70
2022/04/20 09:22:26;;;;;;;5.28;2.80;;;15.90;42.20;;;;;;5113191;28;20012;-70
2022/04/20 09:25:06;;;;;;;4.45;3.20;;;16.10;42.30;;;;;;5113207;28;20042;-69
2022/04/20 09:27:37;;;;;;;5.70;3.00;;;16.20;42.40;;;;;;5095132;28;20103;-69
2022/04/20 09:30:08;;;;;;;5.30;3.30;;;16.30;42.00;;;;;;5113241;28;20042;-69
2022/04/20 09:32:37;;;;;;;3.80;2.90;;;16.30;40.90;;;;;;5113167;28;20016;-69
2022/04/20 09:35:08;;;;;;;3.92;3.20;;;16.40;41.50;;;;;;5112631;28;20016;-68
2022/04/20 09:37:36;;;;;;;8.10;4.72;;;16.50;40.90;;;;;;5112325;28;20088;-69
2022/04/20 09:40:10;;;;;;;14.65;6.80;;;16.50;40.90;;;;;;5095030;28;20527;-69
2022/04/20 09:42:36;;;;;;;5.90;3.20;;;16.60;40.00;;;;;;5113177;28;20024;-69
2022/04/20 09:45:06;;;;;;;6.55;2.90;;;16.50;38.90;;;;;;5112993;28;20027;-69
2022/04/20 09:50:30;;;;;;;9.75;3.22;;;16.60;41.20;;;;;;5113157;28;20032;-69
2022/04/20 09:52:58;;;;;;;5.07;3.10;;;16.50;40.10;;;;;;5113052;28;20040;-69
2022/04/20 09:55:33;;;;;;;5.20;2.92;;;16.60;40.50;;;;;;5111599;28;20016;-69
2022/04/20 09:58:19;;;;;;;7.63;3.97;;;16.70;40.10;;;;;;5112646;28;20032;-69
2022/04/20 10:00:46;;;;;;;5.05;3.50;;;16.80;41.20;;;;;;5114829;28;20070;-69
2022/04/20 10:03:26;;;;;;;8.18;3.78;;;16.90;41.60;;;;;;5116472;28;20027;-69
2022/04/20 10:05:52;;;;;;;4.18;2.80;;;17.10;42.70;;;;;;5116509;28;20016;-69
2022/04/20 10:08:19;;;;;;;4.85;2.78;;;17.20;40.70;;;;;;5098348;28;20136;-69
2022/04/20 10:10:46;;;;;;;4.38;2.80;;;17.20;38.80;;;;;;5116407;28;20039;-70
2022/04/20 10:13:12;;;;;;;3.88;2.45;;;17.30;37.30;;;;;;5116360;28;20024;-69
2022/04/20 10:18:25;;;;;;;2.33;1.80;;;17.20;37.80;;;;;;5116151;28;20054;-69
2022/04/20 10:20:56;;;;;;;4.47;2.45;;;17.30;37.20;;;;;;5116174;28;20024;-68
2022/04/20 10:23:23;;;;;;;4.85;2.30;;;17.40;38.10;;;;;;5116220;28;20383;-68
2022/04/20 10:25:50;;;;;;;5.43;2.30;;;17.50;38.00;;;;;;5116124;28;20107;-68
2022/04/20 10:28:19;;;;;;;4.50;2.40;;;17.70;37.80;;;;;;5116017;28;20115;-69
2022/04/20 10:31:11;;;;;;;6.68;3.03;;;17.80;36.40;;;;;;5115943;28;20541;-69
2022/04/20 10:33:40;;;;;;;4.25;2.85;;;17.80;37.10;;;;;;5116111;28;20020;-69
2022/04/20 10:36:09;;;;;;;8.02;3.50;;;17.80;36.40;;;;;;5115909;28;20054;-69
2022/04/20 10:38:35;;;;;;;4.50;3.00;;;17.80;37.20;;;;;;5115823;28;20055;-69
2022/04/20 10:41:05;;;;;;;4.32;2.75;;;17.80;37.50;;;;;;5115689;28;20035;-69
2022/04/20 10:43:34;;;;;;;3.58;2.30;;;17.90;37.50;;;;;;5115928;28;20020;-68
2022/04/20 10:46:05;;;;;;;5.03;2.30;;;18.00;37.70;;;;;;5115741;28;20047;-68
2022/04/20 10:48:45;;;;;;;4.93;2.92;;;18.10;37.10;;;;;;5115664;28;20043;-68
2022/04/20 10:51:19;;;;;;;4.05;2.40;;;18.20;36.60;;;;;;5115627;28;20028;-68
2022/04/20 10:53:48;;;;;;;6.15;2.35;;;18.00;35.80;;;;;;5115628;28;20016;-69
2022/04/20 10:56:14;;;;;;;4.70;2.50;;;17.90;35.80;;;;;;5115625;28;20035;-69
2022/04/20 10:59:15;;;;;;;3.47;2.80;;;18.00;37.20;;;;;;5115514;28;20024;-68
2022/04/20 11:02:25;;;;;;;8.07;2.92;;;18.10;36.50;;;;;;4997392;28;20030;-69
2022/04/20 11:04:51;;;;;;;3.80;2.67;;;18.10;35.20;;;;;;5073227;28;20033;-68
2022/04/20 11:07:16;;;;;;;5.13;2.95;;;18.00;35.80;;;;;;5073187;28;20044;-68
2022/04/20 11:09:42;;;;;;;3.83;2.97;;;18.00;36.70;;;;;;5094364;28;20078;-68
2022/04/20 11:21:09;;;;;;;3.58;2.60;;;18.30;36.40;;;;;;5115135;28;20093;-69
2022/04/20 11:23:55;;;;;;;2.95;2.30;;;18.40;35.60;;;;;;5114989;28;20020;-69
2022/04/20 11:26:28;;;;;;;3.72;2.35;;;18.30;35.00;;;;;;5114996;28;20084;-69
2022/04/20 11:28:56;;;;;;;3.90;2.28;;;18.30;35.90;;;;;;5114861;28;20028;-69
2022/04/20 11:31:22;;;;;;;3.03;2.25;;;18.40;35.80;;;;;;5114844;28;20035;-69
2022/04/20 11:33:49;;;;;;;5.10;2.92;;;18.50;35.20;;;;;;5114804;28;20032;-69
2022/04/20 11:36:15;;;;;;;3.30;2.53;;;18.50;35.30;;;;;;5114799;28;20046;-69
2022/04/20 11:38:43;;;;;;;3.63;2.60;;;18.40;35.90;;;;;;5114631;28;20057;-68
2022/04/20 11:41:14;;;;;;;5.43;2.65;;;18.50;36.00;;;;;;5114517;28;20080;-68
2022/04/20 11:43:40;;;;;;;4.35;2.72;;;18.60;35.80;;;;;;5114592;28;20543;-68
2022/04/20 11:46:07;;;;;;;4.88;2.88;;;18.70;35.80;;;;;;5114579;28;20102;-69
2022/04/20 11:48:38;;;;;;;5.25;2.88;;;18.80;35.80;;;;;;5114540;28;20024;-68
2022/04/20 11:51:08;;;;;;;4.63;2.53;;;19.00;37.20;;;;;;5114506;28;20020;-68
2022/04/20 11:53:42;;;;;;;5.72;3.10;;;19.00;35.50;;;;;;5114520;28;20093;-68
2022/04/20 11:56:10;;;;;;;4.18;3.20;;;19.10;34.00;;;;;;5114415;28;20024;-68
2022/04/20 11:58:39;;;;;;;4.18;2.80;;;18.70;33.40;;;;;;5114236;28;20024;-68
2022/04/20 12:01:07;;;;;;;4.60;2.60;;;18.60;35.80;;;;;;5114278;28;20043;-68
2022/04/20 12:03:37;;;;;;;7.38;3.20;;;18.70;35.60;;;;;;5114214;28;20020;-68
2022/04/20 12:06:04;;;;;;;6.00;3.30;;;19.00;34.80;;;;;;5114373;28;20020;-68
2022/04/20 12:08:32;;;;;;;5.53;3.33;;;19.10;36.30;;;;;;5114196;28;20032;-68
2022/04/20 12:11:02;;;;;;;4.63;2.80;;;19.20;35.80;;;;;;5114162;28;20047;-68
2022/04/20 12:13:29;;;;;;;4.40;3.47;;;19.20;36.20;;;;;;5114119;28;20077;-68
2022/04/20 12:16:09;;;;;;;6.70;3.10;;;19.40;35.00;;;;;;5114076;28;20028;-68
2022/04/20 12:18:39;;;;;;;4.43;2.65;;;19.40;34.50;;;;;;5113822;28;20051;-68
2022/04/20 12:21:07;;;;;;;3.88;2.70;;;19.40;35.80;;;;;;5114004;28;20055;-69
2022/04/20 12:23:37;;;;;;;6.05;3.22;;;19.60;35.20;;;;;;5113775;28;20049;-69
2022/04/20 12:26:07;;;;;;;6.03;3.00;;;19.60;34.10;;;;;;5113860;28;20017;-69
2022/04/20 12:28:44;;;;;;;4.28;3.22;;;19.60;35.20;;;;;;5113851;28;20017;-69
2022/04/20 12:31:12;;;;;;;5.95;3.05;;;19.70;36.00;;;;;;5113795;28;20433;-69
2022/04/20 12:33:41;;;;;;;6.18;2.97;;;19.60;33.60;;;;;;5095807;28;20042;-69
2022/04/20 12:36:11;;;;;;;3.40;3.10;;;19.50;34.10;;;;;;5113729;28;20027;-70
2022/04/20 12:38:47;;;;;;;4.50;2.85;;;19.50;35.30;;;;;;5113573;28;20028;-69
2022/04/20 12:41:45;;;;;;;4.97;2.80;;;19.60;35.50;;;;;;5113653;28;20023;-69
2022/04/20 12:44:39;;;;;;;6.00;3.70;;;19.70;35.90;;;;;;5113594;28;20032;-69
2022/04/20 12:47:08;;;;;;;6.32;3.35;;;19.80;35.40;;;;;;5113594;28;20082;-69
2022/04/20 12:49:34;;;;;;;7.60;3.95;;;19.90;34.30;;;;;;5113527;28;20077;-69
2022/04/20 12:52:19;;;;;;;4.18;3.10;;;19.80;34.60;;;;;;5113525;28;20024;-69
2022/04/20 12:54:58;;;;;;;3.85;2.92;;;19.90;33.80;;;;;;5113472;28;20027;-69
2022/04/20 13:03:06;;;;;;;5.05;3.33;;;20.20;34.20;;;;;;5113710;28;20066;-69
2022/04/20 13:05:33;;;;;;;5.68;3.30;;;20.20;34.00;;;;;;5113348;28;20016;-69
2022/04/20 13:07:59;;;;;;;4.95;3.03;;;20.20;34.90;;;;;;5113327;28;20087;-69
2022/04/20 13:10:25;;;;;;;7.25;3.42;;;20.30;33.60;;;;;;5113260;28;20042;-68
2022/04/20 13:12:54;;;;;;;4.10;3.47;;;20.20;33.80;;;;;;5113274;28;20051;-69
2022/04/20 13:15:21;;;;;;;5.13;3.13;;;20.10;32.80;;;;;;5113091;28;20028;-68
2022/04/20 13:17:48;;;;;;;5.65;3.38;;;20.10;34.60;;;;;;5095086;28;20052;-68
2022/04/20 13:20:16;;;;;;;3.92;3.10;;;20.20;34.10;;;;;;5113219;28;20024;-69
2022/04/20 13:22:42;;;;;;;4.13;3.10;;;20.10;32.80;;;;;;5113238;28;20028;-68
2022/04/20 13:27:55;;;;;;;5.28;3.00;;;20.10;35.10;;;;;;5113293;28;20036;-69
2022/04/20 13:30:25;;;;;;;4.13;3.00;;;20.20;33.80;;;;;;5113074;28;20020;-68